createdAt,value
2023-03-17T00:01:08.709Z,99080.44
2023-03-17T00:03:40.734Z,99093.75
2023-03-17T00:06:14.571Z,99095.84
2023-03-17T00:08:41.259Z,99096.56
2023-03-17T00:11:12.762Z,99069.88
2023-03-17T00:13:39.508Z,99077.81
2023-03-17T00:16:12.420Z,99068.22
2023-03-17T00:18:38.884Z,99082.56
2023-03-17T00:21:05.722Z,99069.47
2023-03-17T00:23:32.052Z,99060.13
2023-03-17T00:25:58.589Z,99066.88
2023-03-17T00:28:27.044Z,99048.31
2023-03-17T00:30:59.558Z,99044.50
2023-03-17T00:33:28.513Z,99047.47
2023-03-17T00:35:57.193Z,99044.94
2023-03-17T00:38:23.878Z,99055.50
2023-03-17T00:40:50.548Z,99046.59
2023-03-17T00:43:17.928Z,99041.59
2023-03-17T00:45:44.416Z,99037.53
2023-03-17T00:48:19.673Z,99030.00
2023-03-17T00:50:47.544Z,99050.56
2023-03-17T00:53:17.019Z,99044.63
2023-03-17T00:55:44.783Z,99045.91
2023-03-17T00:58:19.947Z,99035.69
2023-03-17T01:00:46.280Z,99039.13
2023-03-17T01:03:12.845Z,99026.19
2023-03-17T01:05:40.729Z,99011.09
2023-03-17T01:08:07.300Z,99013.72
2023-03-17T01:10:33.801Z,99020.41
2023-03-17T01:13:00.445Z,99032.47
2023-03-17T01:15:30.309Z,99033.22
2023-03-17T01:17:56.979Z,99021.31
2023-03-17T01:20:26.118Z,99031.13
2023-03-17T01:22:52.421Z,99016.91
2023-03-17T01:25:19.867Z,99023.84
2023-03-17T01:27:47.646Z,99015.78
2023-03-17T01:30:14.201Z,99027.56
2023-03-17T01:32:40.728Z,99023.25
2023-03-17T01:35:07.330Z,99006.63
2023-03-17T01:37:33.667Z,99015.16
2023-03-17T01:40:00.205Z,99000.81
2023-03-17T01:42:26.526Z,99001.41
2023-03-17T01:44:57.590Z,99002.25
2023-03-17T01:47:26.090Z,99019.00
2023-03-17T01:49:52.724Z,99012.56
2023-03-17T01:52:21.584Z,99018.09
2023-03-17T01:54:56.744Z,99016.94
2023-03-17T01:57:27.652Z,99004.09
2023-03-17T02:00:05.506Z,99004.25
2023-03-17T02:02:35.734Z,99008.16
2023-03-17T02:05:04.518Z,99018.28
2023-03-17T02:07:31.453Z,99006.09
2023-03-17T02:09:58.598Z,98970.00
2023-03-17T02:12:27.278Z,98978.31
2023-03-17T02:14:53.713Z,98998.69
2023-03-17T02:17:21.534Z,98984.28
2023-03-17T02:19:48.985Z,98990.88
2023-03-17T02:22:17.109Z,98988.31
2023-03-17T02:24:47.823Z,98987.81
2023-03-17T02:27:25.862Z,98986.47
2023-03-17T02:29:52.167Z,98989.03
2023-03-17T02:32:19.257Z,98989.16
2023-03-17T02:34:47.068Z,98997.59
2023-03-17T02:37:14.270Z,98998.94
2023-03-17T02:39:40.831Z,98982.16
2023-03-17T02:42:07.681Z,98977.88
2023-03-17T02:44:34.378Z,98967.94
2023-03-17T02:47:02.045Z,98971.91
2023-03-17T02:49:30.606Z,98958.09
2023-03-17T02:51:57.236Z,98966.72
2023-03-17T02:54:23.614Z,98949.13
2023-03-17T02:56:50.015Z,98954.06
2023-03-17T02:59:16.450Z,98956.88
2023-03-17T03:01:43.018Z,98945.59
2023-03-17T03:04:09.433Z,98962.31
2023-03-17T03:06:36.363Z,98963.38
2023-03-17T03:09:03.278Z,98936.84
2023-03-17T03:11:30.342Z,98935.25
2023-03-17T03:13:56.943Z,98931.81
2023-03-17T03:16:24.074Z,98942.28
2023-03-17T03:18:50.733Z,98936.41
2023-03-17T03:21:17.372Z,98938.47
2023-03-17T03:23:43.809Z,98943.81
2023-03-17T03:26:10.376Z,98933.53
2023-03-17T03:28:37.004Z,98941.38
2023-03-17T03:31:03.497Z,98942.75
2023-03-17T03:33:29.866Z,98934.88
2023-03-17T03:35:56.434Z,98934.28
2023-03-17T03:38:23.234Z,98920.59
2023-03-17T03:40:49.650Z,98926.25
2023-03-17T03:43:22.884Z,98936.06
2023-03-17T03:45:50.740Z,98943.31
2023-03-17T03:48:17.446Z,98948.06
2023-03-17T03:50:43.911Z,98942.41
2023-03-17T03:53:10.428Z,98918.13
2023-03-17T03:55:37.134Z,98937.38
2023-03-17T03:58:03.523Z,98923.34
2023-03-17T04:00:30.127Z,98942.69
2023-03-17T04:02:56.677Z,98928.97
2023-03-17T04:05:23.026Z,98938.69
2023-03-17T04:07:49.447Z,98940.84
2023-03-17T04:10:16.779Z,98934.91
2023-03-17T04:12:43.522Z,98947.03
2023-03-17T04:15:13.784Z,98935.56
2023-03-17T04:17:40.083Z,98958.06
2023-03-17T04:20:06.931Z,98938.47
2023-03-17T04:22:33.721Z,98927.25
2023-03-17T04:25:00.494Z,98923.59
2023-03-17T04:27:26.937Z,98925.28
2023-03-17T04:29:53.221Z,98928.00
2023-03-17T04:32:19.896Z,98907.91
2023-03-17T04:34:46.252Z,98906.63
2023-03-17T04:37:12.662Z,98915.31
2023-03-17T04:39:39.191Z,98906.88
2023-03-17T04:42:06.100Z,98889.72
2023-03-17T04:44:32.873Z,98907.75
2023-03-17T04:46:59.264Z,98902.41
2023-03-17T04:49:25.946Z,98894.38
2023-03-17T04:51:52.662Z,98873.53
2023-03-17T04:54:19.026Z,98892.97
2023-03-17T04:56:45.567Z,98886.81
2023-03-17T04:59:11.891Z,98892.34
2023-03-17T05:01:39.256Z,98882.16
2023-03-17T05:04:05.850Z,98913.59
2023-03-17T05:06:32.277Z,98903.00
2023-03-17T05:08:58.656Z,98892.28
2023-03-17T05:11:25.038Z,98876.59
2023-03-17T05:13:51.438Z,98895.91
2023-03-17T05:16:17.846Z,98888.81
2023-03-17T05:18:44.805Z,98901.81
2023-03-17T05:21:11.131Z,98897.09
2023-03-17T05:23:37.486Z,98901.91
2023-03-17T05:26:04.022Z,98906.53
2023-03-17T05:28:30.553Z,98893.16
2023-03-17T05:30:57.195Z,98884.00
2023-03-17T05:33:24.004Z,98871.88
2023-03-17T05:35:50.606Z,98882.28
2023-03-17T05:38:17.450Z,98887.78
2023-03-17T05:40:44.698Z,98884.75
2023-03-17T05:43:11.356Z,98891.34
2023-03-17T05:45:38.150Z,98887.22
2023-03-17T05:48:04.823Z,98893.50
2023-03-17T05:50:31.574Z,98912.63
2023-03-17T05:52:58.065Z,98909.38
2023-03-17T05:55:24.492Z,98906.91
2023-03-17T05:57:50.867Z,98900.13
2023-03-17T06:00:18.054Z,98904.75
2023-03-17T06:02:44.772Z,98911.19
2023-03-17T06:05:13.481Z,98894.47
2023-03-17T06:07:51.620Z,98894.28
2023-03-17T06:10:20.020Z,98905.66
2023-03-17T06:12:46.523Z,98899.28
2023-03-17T06:15:12.985Z,98893.66
2023-03-17T06:17:39.478Z,98894.88
2023-03-17T06:20:06.306Z,98887.69
2023-03-17T06:22:32.818Z,98891.72
2023-03-17T06:24:59.240Z,98897.00
2023-03-17T06:27:25.700Z,98891.31
2023-03-17T06:29:52.089Z,98900.03
2023-03-17T06:32:20.876Z,98894.19
2023-03-17T06:34:47.896Z,98890.63
2023-03-17T06:37:14.430Z,98886.97
2023-03-17T06:39:41.002Z,98884.50
2023-03-17T06:42:07.501Z,98891.75
2023-03-17T06:44:37.958Z,98912.56
2023-03-17T06:47:04.592Z,98900.66
2023-03-17T06:49:33.394Z,98880.78
2023-03-17T06:51:59.942Z,98904.28
2023-03-17T06:54:26.556Z,98897.88
2023-03-17T06:56:53.362Z,98873.56
2023-03-17T06:59:21.813Z,98893.13
2023-03-17T07:01:49.523Z,98904.44
2023-03-17T07:04:16.193Z,98885.66
2023-03-17T07:06:44.060Z,98898.91
2023-03-17T07:09:10.407Z,98894.31
2023-03-17T07:11:36.753Z,98863.09
2023-03-17T07:14:03.462Z,98885.84
2023-03-17T07:16:29.908Z,98908.47
2023-03-17T07:18:56.374Z,98896.91
2023-03-17T07:21:23.396Z,98897.47
2023-03-17T07:23:49.743Z,98889.47
2023-03-17T07:26:16.955Z,98906.72
2023-03-17T07:28:43.656Z,98895.91
2023-03-17T07:31:10.520Z,98894.09
2023-03-17T07:33:38.035Z,98883.53
2023-03-17T07:36:05.041Z,98888.75
2023-03-17T07:38:31.535Z,98872.47
2023-03-17T07:40:58.351Z,98891.19
2023-03-17T07:43:25.180Z,98890.22
2023-03-17T07:45:51.591Z,98882.16
2023-03-17T07:48:19.216Z,98895.09
2023-03-17T07:50:45.629Z,98893.91
2023-03-17T07:53:12.099Z,98878.03
2023-03-17T07:55:38.434Z,98891.63
2023-03-17T07:58:06.323Z,98896.16
2023-03-17T08:00:33.096Z,98890.34
2023-03-17T08:03:09.811Z,98893.50
2023-03-17T08:05:37.788Z,98890.19
2023-03-17T08:08:04.319Z,98884.88
2023-03-17T08:10:32.337Z,98885.38
2023-03-17T08:12:58.996Z,98896.31
2023-03-17T08:15:25.474Z,98900.22
2023-03-17T08:17:52.805Z,98878.44
2023-03-17T08:20:21.908Z,98878.81
2023-03-17T08:22:48.297Z,98872.78
2023-03-17T08:25:14.777Z,98874.69
2023-03-17T08:27:41.207Z,98888.66
2023-03-17T08:30:08.326Z,98894.38
2023-03-17T08:32:35.239Z,98870.03
2023-03-17T08:35:03.138Z,98896.78
2023-03-17T08:37:29.474Z,98868.25
2023-03-17T08:39:56.778Z,98884.66
2023-03-17T08:42:24.114Z,98888.41
2023-03-17T08:44:50.443Z,98875.06
2023-03-17T08:47:17.524Z,98879.72
2023-03-17T08:49:44.944Z,98874.56
2023-03-17T08:52:11.344Z,98872.44
2023-03-17T08:54:38.103Z,98869.94
2023-03-17T08:57:04.675Z,98850.06
2023-03-17T08:59:31.268Z,98855.16
2023-03-17T09:01:57.782Z,98875.19
2023-03-17T09:04:24.442Z,98870.47
2023-03-17T09:07:02.912Z,98864.81
2023-03-17T09:09:34.141Z,98849.09
2023-03-17T09:12:02.203Z,98842.41
2023-03-17T09:14:29.565Z,98814.56
2023-03-17T09:16:56.592Z,98854.59
2023-03-17T09:19:23.541Z,98851.16
2023-03-17T09:21:51.175Z,98839.25
2023-03-17T09:24:19.020Z,98837.91
2023-03-17T09:26:45.330Z,98840.44
2023-03-17T09:29:12.371Z,98826.63
2023-03-17T09:31:39.375Z,98822.66
2023-03-17T09:34:06.821Z,98842.84
2023-03-17T09:36:33.685Z,98812.88
2023-03-17T09:39:00.118Z,98815.44
2023-03-17T09:41:32.834Z,98829.34
2023-03-17T09:44:40.552Z,98825.44
2023-03-17T09:47:30.393Z,98827.91
2023-03-17T09:50:05.285Z,98831.97
2023-03-17T09:52:34.314Z,98824.66
2023-03-17T09:55:03.698Z,98816.91
2023-03-17T09:57:36.147Z,98814.31
2023-03-17T10:00:05.121Z,98822.75
2023-03-17T10:02:33.581Z,98833.84
2023-03-17T10:05:17.360Z,98832.94
2023-03-17T10:07:56.990Z,98814.09
2023-03-17T10:11:03.428Z,98817.81
2023-03-17T10:13:51.115Z,98811.25
2023-03-17T10:16:35.996Z,98808.03
2023-03-17T10:19:10.715Z,98796.81
2023-03-17T10:21:46.939Z,98791.66
2023-03-17T10:24:14.552Z,98778.13
2023-03-17T10:26:46.160Z,98792.09
2023-03-17T10:29:23.377Z,98793.69
2023-03-17T10:31:51.413Z,98788.50
2023-03-17T10:34:33.270Z,98797.91
2023-03-17T10:37:05.299Z,98790.34
2023-03-17T10:39:32.951Z,98796.97
2023-03-17T10:42:11.787Z,98803.19
2023-03-17T10:45:03.901Z,98778.84
2023-03-17T10:47:38.189Z,98788.22
2023-03-17T10:50:20.487Z,98791.38
2023-03-17T10:52:52.072Z,98782.81
2023-03-17T10:55:22.939Z,98777.56
2023-03-17T10:58:05.385Z,98783.03
2023-03-17T11:00:34.647Z,98783.06
2023-03-17T11:03:10.949Z,98769.19
2023-03-17T11:05:39.042Z,98765.13
2023-03-17T11:08:18.029Z,98764.44
2023-03-17T11:10:45.271Z,98765.56
2023-03-17T11:13:17.102Z,98767.78
2023-03-17T11:15:50.404Z,98766.03
2023-03-17T11:18:23.001Z,98753.19
2023-03-17T11:21:32.410Z,98756.41
2023-03-17T11:24:07.444Z,98761.03
2023-03-17T11:26:49.391Z,98754.69
2023-03-17T11:29:42.538Z,98750.47
2023-03-17T11:32:34.353Z,98742.63
2023-03-17T11:35:28.494Z,98754.16
2023-03-17T11:38:16.465Z,98744.69
2023-03-17T11:41:01.723Z,98739.47
2023-03-17T11:43:42.322Z,98754.56
2023-03-17T11:46:12.818Z,98737.59
2023-03-17T11:48:59.302Z,98733.53
2023-03-17T11:51:33.701Z,98739.91
2023-03-17T11:54:00.116Z,98749.03
2023-03-17T11:56:39.247Z,98739.34
2023-03-17T11:59:15.688Z,98730.69
2023-03-17T12:01:53.929Z,98732.75
2023-03-17T12:04:30.371Z,98734.78
2023-03-17T12:07:22.326Z,98722.16
2023-03-17T12:10:03.397Z,98731.50
2023-03-17T12:12:45.190Z,98726.50
2023-03-17T12:15:22.573Z,98718.91
2023-03-17T12:17:56.147Z,98733.16
2023-03-17T12:20:38.008Z,98733.59
2023-03-17T12:23:23.032Z,98719.19
2023-03-17T12:25:57.387Z,98736.78
2023-03-17T12:28:32.518Z,98697.94
2023-03-17T12:31:10.228Z,98689.22
2023-03-17T12:33:48.139Z,98701.91
2023-03-17T12:36:16.411Z,98721.56
2023-03-17T12:39:00.466Z,98716.97
2023-03-17T12:42:01.314Z,98721.59
2023-03-17T12:44:41.603Z,98717.63
2023-03-17T12:47:26.774Z,98722.63
2023-03-17T12:50:04.935Z,98726.47
2023-03-17T12:52:40.769Z,98729.97
2023-03-17T12:55:14.220Z,98726.91
2023-03-17T12:57:43.447Z,98706.88
2023-03-17T13:00:29.117Z,98715.00
2023-03-17T13:03:22.535Z,98717.28
2023-03-17T13:05:53.029Z,98719.47
2023-03-17T13:08:28.302Z,98720.09
2023-03-17T13:11:32.907Z,98720.94
2023-03-17T13:14:37.233Z,98714.69
2023-03-17T13:17:24.759Z,98698.16
2023-03-17T13:20:07.230Z,98697.25
2023-03-17T13:22:37.720Z,98681.66
2023-03-17T13:25:47.145Z,98696.75
2023-03-17T13:28:13.414Z,98691.50
2023-03-17T13:30:40.633Z,98691.94
2023-03-17T13:33:10.136Z,98693.06
2023-03-17T13:35:42.431Z,98699.75
2023-03-17T13:38:32.835Z,98689.78
2023-03-17T13:41:23.808Z,98675.34
2023-03-17T13:44:28.479Z,98677.91
2023-03-17T13:46:55.206Z,98674.19
2023-03-17T13:49:30.427Z,98673.06
2023-03-17T13:52:07.029Z,98670.34
2023-03-17T13:54:40.712Z,98679.91
2023-03-17T13:57:28.760Z,98667.97
2023-03-17T14:00:25.583Z,98662.41
2023-03-17T14:03:25.649Z,98666.16
2023-03-17T14:05:53.257Z,98662.38
2023-03-17T14:08:33.899Z,98662.59
2023-03-17T14:11:16.036Z,98659.09
2023-03-17T14:13:55.232Z,98675.03
2023-03-17T14:16:27.935Z,98649.22
2023-03-17T14:19:10.861Z,98634.13
2023-03-17T14:21:37.303Z,98627.50
2023-03-17T14:24:28.741Z,98637.44
2023-03-17T14:26:55.362Z,98625.47
2023-03-17T14:29:27.320Z,98643.44
2023-03-17T14:32:07.413Z,98627.25
2023-03-17T14:34:33.952Z,98621.09
2023-03-17T14:37:01.718Z,98625.25
2023-03-17T14:39:29.025Z,98627.22
2023-03-17T14:42:00.400Z,98628.06
2023-03-17T14:44:27.377Z,98620.63
2023-03-17T14:47:06.013Z,98620.09
2023-03-17T14:49:33.058Z,98620.47
2023-03-17T14:51:59.660Z,98617.59
2023-03-17T14:54:35.370Z,98611.59
2023-03-17T14:57:06.943Z,98620.41
2023-03-17T14:59:38.854Z,98611.91
2023-03-17T15:02:23.556Z,98622.13
2023-03-17T15:04:58.709Z,98612.75
2023-03-17T15:07:45.334Z,98615.91
2023-03-17T15:10:17.678Z,98616.13
2023-03-17T15:12:45.884Z,98600.13
2023-03-17T15:15:22.842Z,98617.25
2023-03-17T15:17:55.588Z,98606.28
2023-03-17T15:20:22.813Z,98586.25
2023-03-17T15:22:56.260Z,98610.56
2023-03-17T15:25:31.841Z,98605.06
2023-03-17T15:27:58.672Z,98611.84
2023-03-17T15:30:27.443Z,98591.44
2023-03-17T15:33:01.242Z,98607.28
2023-03-17T15:35:27.942Z,98590.16
2023-03-17T15:37:54.886Z,98583.88
2023-03-17T15:40:21.595Z,98597.31
2023-03-17T15:42:47.908Z,98581.44
2023-03-17T15:45:18.101Z,98590.38
2023-03-17T15:47:46.356Z,98599.09
2023-03-17T15:50:18.012Z,98601.44
2023-03-17T15:52:45.623Z,98606.56
2023-03-17T15:55:20.248Z,98595.66
2023-03-17T15:57:54.789Z,98595.75
2023-03-17T16:00:23.223Z,98605.53
2023-03-17T16:02:53.293Z,98607.34
2023-03-17T16:05:22.985Z,98597.34
2023-03-17T16:07:49.773Z,98603.09
2023-03-17T16:10:17.298Z,98578.34
2023-03-17T16:12:43.744Z,98580.69
2023-03-17T16:15:23.112Z,98589.88
2023-03-17T16:17:53.509Z,98586.56
2023-03-17T16:20:36.512Z,98589.09
2023-03-17T16:23:24.716Z,98591.19
2023-03-17T16:25:52.655Z,98591.34
2023-03-17T16:28:27.495Z,98592.31
2023-03-17T16:30:55.118Z,98569.91
2023-03-17T16:33:29.064Z,98583.00
2023-03-17T16:35:55.486Z,98556.00
2023-03-17T16:38:26.144Z,98578.53
2023-03-17T16:40:55.190Z,98564.63
2023-03-17T16:43:27.467Z,98576.22
2023-03-17T16:45:56.980Z,98581.38
2023-03-17T16:48:23.716Z,98554.09
2023-03-17T16:50:50.508Z,98573.03
2023-03-17T16:53:17.189Z,98568.03
2023-03-17T16:55:44.570Z,98549.34
2023-03-17T16:58:43.449Z,98574.31
2023-03-17T17:01:14.742Z,98567.78
2023-03-17T17:03:41.225Z,98563.59
2023-03-17T17:06:08.373Z,98582.53
2023-03-17T17:08:34.870Z,98544.09
2023-03-17T17:11:01.295Z,98565.69
2023-03-17T17:13:28.033Z,98574.34
2023-03-17T17:15:55.278Z,98578.06
2023-03-17T17:18:22.394Z,98562.75
2023-03-17T17:20:49.895Z,98564.44
2023-03-17T17:23:21.420Z,98566.09
2023-03-17T17:25:48.313Z,98568.31
2023-03-17T17:28:16.912Z,98574.16
2023-03-17T17:30:43.645Z,98573.16
2023-03-17T17:33:10.003Z,98567.31
2023-03-17T17:35:37.427Z,98584.13
2023-03-17T17:38:04.423Z,98586.19
2023-03-17T17:40:31.966Z,98591.75
2023-03-17T17:42:58.646Z,98580.22
2023-03-17T17:45:25.301Z,98576.56
2023-03-17T17:47:52.009Z,98588.00
2023-03-17T17:50:26.346Z,98579.28
2023-03-17T17:52:52.915Z,98580.25
2023-03-17T17:55:20.046Z,98580.41
2023-03-17T17:57:46.484Z,98577.50
2023-03-17T18:00:16.805Z,98595.03
2023-03-17T18:02:43.729Z,98581.94
2023-03-17T18:05:10.565Z,98599.50
2023-03-17T18:07:36.934Z,98590.84
2023-03-17T18:10:05.252Z,98581.53
2023-03-17T18:12:32.075Z,98598.41
2023-03-17T18:14:58.724Z,98601.56
2023-03-17T18:17:25.191Z,98601.28
2023-03-17T18:19:52.271Z,98614.78
2023-03-17T18:22:19.799Z,98618.91
2023-03-17T18:24:46.360Z,98618.84
2023-03-17T18:27:15.261Z,98627.56
2023-03-17T18:29:41.742Z,98626.53
2023-03-17T18:32:08.490Z,98634.72
2023-03-17T18:34:40.748Z,98634.69
2023-03-17T18:37:07.212Z,98616.75
2023-03-17T18:39:33.762Z,98628.31
2023-03-17T18:42:00.492Z,98613.75
2023-03-17T18:44:26.918Z,98621.09
2023-03-17T18:46:53.481Z,98609.63
2023-03-17T18:49:20.230Z,98610.00
2023-03-17T18:51:46.649Z,98581.13
2023-03-17T18:54:13.630Z,98629.72
2023-03-17T18:56:39.963Z,98634.66
2023-03-17T18:59:06.276Z,98611.22
2023-03-17T19:01:32.998Z,98619.38
2023-03-17T19:03:59.432Z,98628.47
2023-03-17T19:06:25.871Z,98620.34
2023-03-17T19:08:52.307Z,98621.19
2023-03-17T19:11:19.787Z,98634.72
2023-03-17T19:13:46.106Z,98604.44
2023-03-17T19:16:13.412Z,98636.16
2023-03-17T19:18:42.026Z,98622.78
2023-03-17T19:21:10.253Z,98605.31
2023-03-17T19:23:36.850Z,98608.16
2023-03-17T19:26:03.376Z,98611.63
2023-03-17T19:28:29.668Z,98610.72
2023-03-17T19:30:56.016Z,98605.81
2023-03-17T19:33:22.902Z,98596.78
2023-03-17T19:35:55.409Z,98611.13
2023-03-17T19:38:22.982Z,98604.31
2023-03-17T19:40:49.722Z,98592.25
2023-03-17T19:43:28.868Z,98597.84
2023-03-17T19:46:02.563Z,98602.31
2023-03-17T19:48:28.901Z,98600.00
2023-03-17T19:50:55.203Z,98608.53
2023-03-17T19:53:21.605Z,98594.63
2023-03-17T19:55:48.031Z,98607.94
2023-03-17T19:58:14.472Z,98593.94
2023-03-17T20:00:41.642Z,98598.00
2023-03-17T20:03:08.076Z,98600.41
2023-03-17T20:05:34.954Z,98620.41
2023-03-17T20:08:01.638Z,98615.72
2023-03-17T20:10:28.615Z,98623.03
2023-03-17T20:12:54.973Z,98620.50
2023-03-17T20:15:21.574Z,98610.81
2023-03-17T20:17:48.005Z,98612.97
2023-03-17T20:20:14.846Z,98629.34
2023-03-17T20:22:41.221Z,98612.47
2023-03-17T20:25:08.230Z,98619.41
2023-03-17T20:27:34.547Z,98614.03
2023-03-17T20:30:01.293Z,98622.97
2023-03-17T20:32:27.835Z,98636.13
2023-03-17T20:34:54.191Z,98623.91
2023-03-17T20:37:20.718Z,98627.88
2023-03-17T20:39:47.051Z,98612.75
2023-03-17T20:42:13.550Z,98625.34
2023-03-17T20:44:42.677Z,98620.19
2023-03-17T20:47:09.187Z,98614.56
2023-03-17T20:49:35.944Z,98625.91
2023-03-17T20:52:02.474Z,98626.78
2023-03-17T20:54:28.839Z,98624.09
2023-03-17T20:56:55.282Z,98615.13
2023-03-17T20:59:21.779Z,98623.84
2023-03-17T21:01:48.147Z,98632.78
2023-03-17T21:04:14.597Z,98627.75
2023-03-17T21:06:41.808Z,98628.63
2023-03-17T21:09:08.795Z,98628.50
2023-03-17T21:11:36.022Z,98626.34
2023-03-17T21:14:02.920Z,98628.09
2023-03-17T21:16:29.420Z,98620.31
2023-03-17T21:18:56.113Z,98602.13
2023-03-17T21:21:23.574Z,98614.19
2023-03-17T21:23:50.037Z,98609.81
2023-03-17T21:26:16.504Z,98611.03
2023-03-17T21:28:43.323Z,98621.19
2023-03-17T21:31:11.610Z,98628.34
2023-03-17T21:33:38.225Z,98630.97
2023-03-17T21:36:05.871Z,98636.75
2023-03-17T21:38:32.596Z,98629.31
2023-03-17T21:41:17.391Z,98593.69
2023-03-17T21:43:43.946Z,98636.00
2023-03-17T21:46:10.396Z,98628.00
2023-03-17T21:48:36.722Z,98625.59
2023-03-17T21:51:03.332Z,98635.50
2023-03-17T21:53:29.752Z,98648.66
2023-03-17T21:55:56.151Z,98635.41
2023-03-17T21:58:22.453Z,98636.06
2023-03-17T22:00:49.092Z,98648.34
2023-03-17T22:03:15.990Z,98616.03
2023-03-17T22:05:42.603Z,98636.94
2023-03-17T22:08:08.934Z,98620.13
2023-03-17T22:10:35.352Z,98631.13
2023-03-17T22:13:01.763Z,98645.13
2023-03-17T22:15:28.447Z,98633.59
2023-03-17T22:17:55.196Z,98634.13
2023-03-17T22:20:21.596Z,98637.69
2023-03-17T22:22:48.072Z,98644.63
2023-03-17T22:25:14.489Z,98650.59
2023-03-17T22:27:40.938Z,98645.22
2023-03-17T22:30:07.836Z,98641.13
2023-03-17T22:32:34.439Z,98627.69
2023-03-17T22:35:00.831Z,98633.81
2023-03-17T22:37:27.206Z,98624.59
2023-03-17T22:39:53.900Z,98628.06
2023-03-17T22:42:20.601Z,98638.00
2023-03-17T22:44:46.946Z,98635.81
2023-03-17T22:47:13.337Z,98635.72
2023-03-17T22:49:39.696Z,98640.31
2023-03-17T22:52:06.604Z,98647.50
2023-03-17T22:54:33.206Z,98626.03
2023-03-17T22:56:59.533Z,98640.09
2023-03-17T22:59:26.079Z,98640.66
2023-03-17T23:01:52.463Z,98636.16
2023-03-17T23:04:18.836Z,98628.19
2023-03-17T23:06:45.438Z,98620.19
2023-03-17T23:09:11.899Z,98619.25
2023-03-17T23:11:38.334Z,98628.09
2023-03-17T23:14:04.740Z,98624.63
2023-03-17T23:16:31.282Z,98626.22
2023-03-17T23:18:57.957Z,98638.38
2023-03-17T23:21:30.920Z,98622.09
2023-03-17T23:23:58.096Z,98625.34
2023-03-17T23:26:24.757Z,98618.66
2023-03-17T23:28:51.660Z,98620.31
2023-03-17T23:31:19.041Z,98621.72
2023-03-17T23:33:46.774Z,98645.69
2023-03-17T23:36:13.223Z,98649.63
2023-03-17T23:38:43.464Z,98651.09
2023-03-17T23:41:10.937Z,98661.59
2023-03-17T23:43:39.406Z,98663.63
2023-03-17T23:46:05.896Z,98661.31
2023-03-17T23:48:32.786Z,98654.16
2023-03-17T23:50:59.395Z,98660.25
2023-03-17T23:53:26.052Z,98663.81
2023-03-17T23:55:52.370Z,98650.81
2023-03-17T23:58:18.944Z,98656.06
